createdAt,value
2023-03-18T00:01:04.006Z,7.65
2023-03-18T00:04:08.781Z,8.98
2023-03-18T00:07:12.125Z,8.32
2023-03-18T00:10:16.740Z,8.20
2023-03-18T00:13:20.300Z,8.57
2023-03-18T00:16:23.569Z,7.78
2023-03-18T00:19:28.136Z,8.02
2023-03-18T00:22:31.356Z,8.00
2023-03-18T00:25:34.545Z,7.28
2023-03-18T00:28:39.622Z,8.80
2023-03-18T00:31:44.180Z,8.15
2023-03-18T00:34:49.942Z,7.85
2023-03-18T00:37:53.512Z,7.97
2023-03-18T00:41:10.912Z,7.80
2023-03-18T00:44:14.880Z,7.50
2023-03-18T00:47:18.141Z,8.30
2023-03-18T00:50:22.790Z,8.52
2023-03-18T00:53:26.199Z,8.23
2023-03-18T00:56:31.976Z,7.78
2023-03-18T00:59:35.479Z,8.75
2023-03-18T01:02:38.805Z,7.70
2023-03-18T01:05:43.934Z,8.35
2023-03-18T01:08:47.073Z,7.85
2023-03-18T01:11:50.328Z,8.10
2023-03-18T01:14:53.803Z,8.73
2023-03-18T01:17:58.398Z,8.50
2023-03-18T01:21:03.688Z,8.95
2023-03-18T01:24:11.444Z,8.75
2023-03-18T01:27:14.979Z,8.93
2023-03-18T01:30:21.523Z,9.10
2023-03-18T01:33:25.634Z,8.57
2023-03-18T01:36:30.526Z,8.30
2023-03-18T01:39:42.032Z,8.68
2023-03-18T01:42:57.646Z,9.30
2023-03-18T01:46:19.110Z,8.98
2023-03-18T01:49:25.134Z,9.25
2023-03-18T01:52:33.388Z,9.85
2023-03-18T01:55:38.007Z,10.27
2023-03-18T01:58:44.733Z,11.15
2023-03-18T02:01:53.105Z,9.90
2023-03-18T02:05:02.969Z,11.05
2023-03-18T02:08:08.220Z,10.55
2023-03-18T02:11:12.514Z,11.82
2023-03-18T02:14:17.117Z,12.23
2023-03-18T02:17:25.694Z,12.68
2023-03-18T02:20:44.321Z,12.48
2023-03-18T02:24:03.099Z,12.82
2023-03-18T02:27:17.013Z,12.32
2023-03-18T02:30:24.936Z,15.70
2023-03-18T02:33:33.333Z,14.85
2023-03-18T02:36:37.804Z,13.70
2023-03-18T02:39:45.528Z,11.32
2023-03-18T02:42:51.432Z,11.45
2023-03-18T02:46:18.690Z,11.30
2023-03-18T02:49:23.391Z,10.15
2023-03-18T02:52:26.704Z,11.50
2023-03-18T02:55:29.977Z,11.25
2023-03-18T02:58:34.776Z,10.55
2023-03-18T03:01:40.718Z,9.68
2023-03-18T03:04:44.376Z,9.82
2023-03-18T03:07:47.755Z,9.38
2023-03-18T03:10:52.430Z,9.48
2023-03-18T03:13:57.591Z,9.43
2023-03-18T03:17:01.833Z,9.23
2023-03-18T03:20:08.669Z,9.25
2023-03-18T03:23:16.672Z,9.40
2023-03-18T03:26:20.447Z,9.45
2023-03-18T03:29:25.344Z,8.98
2023-03-18T03:32:29.025Z,9.68
2023-03-18T03:35:33.081Z,8.80
2023-03-18T03:38:36.318Z,9.02
2023-03-18T03:41:39.730Z,9.02
2023-03-18T03:44:44.329Z,9.25
2023-03-18T03:47:48.132Z,8.95
2023-03-18T03:50:52.554Z,10.15
2023-03-18T03:53:55.730Z,9.35
2023-03-18T03:56:59.439Z,9.65
2023-03-18T04:00:04.961Z,9.73
2023-03-18T04:03:17.632Z,9.77
2023-03-18T04:06:20.937Z,10.25
2023-03-18T04:09:34.846Z,10.55
2023-03-18T04:12:39.035Z,10.32
2023-03-18T04:15:44.026Z,9.95
2023-03-18T04:18:51.332Z,9.63
2023-03-18T04:21:58.870Z,8.85
2023-03-18T04:25:02.072Z,9.25
2023-03-18T04:28:05.563Z,9.05
2023-03-18T04:31:11.265Z,8.52
2023-03-18T04:34:14.692Z,8.98
2023-03-18T04:37:20.011Z,8.60
2023-03-18T04:40:26.443Z,9.20
2023-03-18T04:43:30.244Z,8.63
2023-03-18T04:46:35.038Z,8.50
2023-03-18T04:49:38.814Z,8.38
2023-03-18T04:52:43.736Z,8.70
2023-03-18T04:55:50.667Z,8.15
2023-03-18T04:58:55.401Z,7.97
2023-03-18T05:02:05.263Z,8.75
2023-03-18T05:05:10.551Z,8.52
2023-03-18T05:08:18.769Z,8.25
2023-03-18T05:11:23.044Z,8.85
2023-03-18T05:14:27.048Z,9.43
2023-03-18T05:17:32.767Z,10.35
2023-03-18T05:20:39.701Z,9.38
2023-03-18T05:23:43.448Z,9.15
2023-03-18T05:26:47.874Z,8.80
2023-03-18T05:29:52.578Z,8.50
2023-03-18T05:33:03.983Z,8.20
2023-03-18T05:36:25.506Z,8.18
2023-03-18T05:39:36.054Z,8.10
2023-03-18T05:42:57.122Z,8.07
2023-03-18T05:46:10.131Z,7.80
2023-03-18T05:49:31.160Z,7.60
2023-03-18T05:52:54.609Z,7.93
2023-03-18T05:55:59.909Z,7.15
2023-03-18T05:59:06.053Z,8.07
2023-03-18T06:02:17.527Z,7.20
2023-03-18T06:05:24.474Z,7.63
2023-03-18T06:08:27.759Z,7.03
2023-03-18T06:11:31.216Z,8.13
2023-03-18T06:14:34.454Z,6.68
2023-03-18T06:17:39.709Z,6.05
2023-03-18T06:20:45.798Z,6.80
2023-03-18T06:23:49.640Z,6.15
2023-03-18T06:26:52.990Z,6.00
2023-03-18T06:29:56.776Z,6.68
2023-03-18T06:33:00.172Z,6.28
2023-03-18T06:36:06.475Z,6.97
2023-03-18T06:39:10.706Z,12.50
2023-03-18T06:42:14.816Z,7.30
2023-03-18T06:45:30.161Z,7.47
2023-03-18T06:48:41.726Z,7.53
2023-03-18T06:51:49.664Z,6.28
2023-03-18T06:54:54.477Z,5.65
2023-03-18T06:57:58.227Z,6.50
2023-03-18T07:01:09.373Z,6.10
2023-03-18T07:04:17.387Z,5.82
2023-03-18T07:07:23.277Z,5.50
2023-03-18T07:10:29.109Z,5.32
2023-03-18T07:13:39.908Z,5.30
2023-03-18T07:16:50.400Z,11.25
2023-03-18T07:19:53.951Z,5.13
2023-03-18T07:22:59.286Z,4.90
2023-03-18T07:26:04.699Z,4.53
2023-03-18T07:29:08.472Z,5.63
2023-03-18T07:32:11.881Z,5.10
2023-03-18T07:35:15.761Z,4.47
2023-03-18T07:38:20.406Z,4.70
2023-03-18T07:41:23.693Z,4.10
2023-03-18T07:44:27.460Z,4.03
2023-03-18T07:47:30.674Z,4.20
2023-03-18T07:50:34.012Z,4.00
2023-03-18T07:53:38.607Z,3.90
2023-03-18T07:56:41.816Z,4.35
2023-03-18T07:59:45.054Z,4.07
2023-03-18T08:02:48.346Z,3.70
2023-03-18T08:05:51.577Z,4.65
2023-03-18T08:08:56.297Z,4.20
2023-03-18T08:12:00.282Z,4.70
2023-03-18T08:15:03.921Z,4.55
2023-03-18T08:18:09.356Z,4.18
2023-03-18T08:21:13.553Z,4.65
2023-03-18T08:24:18.346Z,4.47
2023-03-18T08:27:21.935Z,4.57
2023-03-18T08:30:28.579Z,5.15
2023-03-18T08:33:31.788Z,5.20
2023-03-18T08:36:35.124Z,5.03
2023-03-18T08:39:39.845Z,4.50
2023-03-18T08:42:43.149Z,4.63
2023-03-18T08:45:47.235Z,4.85
2023-03-18T08:48:51.526Z,4.38
2023-03-18T08:51:54.784Z,5.57
2023-03-18T08:54:59.942Z,4.28
2023-03-18T08:58:04.503Z,5.13
2023-03-18T09:01:09.571Z,5.05
2023-03-18T09:04:14.930Z,5.18
2023-03-18T09:07:19.169Z,4.78
2023-03-18T09:10:24.068Z,5.43
2023-03-18T09:13:27.926Z,5.47
2023-03-18T09:16:31.214Z,4.78
2023-03-18T09:19:34.442Z,5.55
2023-03-18T09:22:38.115Z,5.10
2023-03-18T09:25:43.736Z,4.68
2023-03-18T09:28:47.433Z,5.65
2023-03-18T09:31:50.823Z,5.35
2023-03-18T09:34:54.677Z,5.20
2023-03-18T09:37:57.987Z,5.03
2023-03-18T09:41:09.269Z,5.60
2023-03-18T09:44:19.361Z,5.78
2023-03-18T09:47:42.314Z,5.65
2023-03-18T09:50:54.040Z,4.90
2023-03-18T09:54:02.777Z,5.30
2023-03-18T09:57:14.133Z,5.03
2023-03-18T10:00:21.778Z,4.68
2023-03-18T10:03:33.516Z,4.90
2023-03-18T10:06:43.004Z,5.00
2023-03-18T10:09:49.557Z,4.50
2023-03-18T10:13:02.316Z,5.32
2023-03-18T10:16:07.384Z,5.22
2023-03-18T10:19:10.717Z,4.78
2023-03-18T10:22:30.469Z,4.75
2023-03-18T10:25:38.983Z,4.60
2023-03-18T10:29:01.619Z,4.45
2023-03-18T10:32:13.613Z,5.30
2023-03-18T10:35:27.951Z,4.40
2023-03-18T10:38:36.275Z,4.10
2023-03-18T10:41:40.151Z,4.90
2023-03-18T10:44:45.570Z,5.00
2023-03-18T10:47:55.351Z,4.60
2023-03-18T10:51:09.302Z,4.88
2023-03-18T10:54:16.823Z,5.28
2023-03-18T10:57:21.930Z,4.88
2023-03-18T11:00:33.023Z,4.93
2023-03-18T11:03:42.295Z,31.02
2023-03-18T11:06:48.780Z,15.18
2023-03-18T11:09:52.244Z,5.13
2023-03-18T11:13:00.164Z,4.70
2023-03-18T11:16:05.295Z,9.10
2023-03-18T11:19:26.524Z,4.00
2023-03-18T11:22:33.222Z,4.70
2023-03-18T11:25:36.937Z,5.85
2023-03-18T11:28:42.917Z,5.57
2023-03-18T11:31:58.002Z,3.72
2023-03-18T11:35:03.456Z,4.20
2023-03-18T11:38:19.898Z,6.07
2023-03-18T11:41:26.204Z,4.88
2023-03-18T11:44:32.017Z,4.93
2023-03-18T11:47:39.709Z,4.25
2023-03-18T11:51:02.249Z,4.18
2023-03-18T11:54:36.629Z,5.05
2023-03-18T11:57:59.106Z,4.57
2023-03-18T12:01:08.920Z,4.70
2023-03-18T12:04:37.280Z,5.28
2023-03-18T12:07:51.901Z,4.68
2023-03-18T12:11:06.431Z,4.78
2023-03-18T12:14:21.320Z,5.20
2023-03-18T12:17:34.026Z,5.57
2023-03-18T12:20:51.166Z,5.47
2023-03-18T12:24:04.407Z,5.43
2023-03-18T12:27:14.545Z,3.53
2023-03-18T12:33:50.836Z,3.50
2023-03-18T12:37:10.179Z,3.95
2023-03-18T12:40:27.001Z,4.10
2023-03-18T12:43:46.734Z,5.50
2023-03-18T12:46:53.819Z,3.97
2023-03-18T12:50:01.548Z,4.63
2023-03-18T12:53:16.615Z,4.03
2023-03-18T12:56:22.178Z,3.80
2023-03-18T12:59:31.768Z,4.13
2023-03-18T13:02:45.236Z,4.53
2023-03-18T13:05:54.022Z,4.30
2023-03-18T13:09:05.358Z,4.47
2023-03-18T13:12:12.593Z,6.10
2023-03-18T13:15:24.595Z,6.18
2023-03-18T13:18:34.703Z,4.80
2023-03-18T13:21:43.978Z,3.97
2023-03-18T13:25:05.960Z,4.28
2023-03-18T13:28:39.867Z,5.00
2023-03-18T13:31:53.404Z,5.15
2023-03-18T13:35:40.127Z,3.78
2023-03-18T13:39:15.497Z,4.28
2023-03-18T13:42:26.877Z,4.00
2023-03-18T13:45:33.718Z,4.25
2023-03-18T13:48:37.389Z,4.72
2023-03-18T13:51:53.197Z,4.75
2023-03-18T13:55:01.905Z,4.65
2023-03-18T13:58:23.543Z,4.43
2023-03-18T14:01:33.503Z,4.72
2023-03-18T14:04:47.348Z,4.88
2023-03-18T14:07:50.904Z,4.32
2023-03-18T14:11:44.777Z,4.18
2023-03-18T14:15:21.370Z,4.30
2023-03-18T14:18:29.010Z,4.43
2023-03-18T14:21:34.516Z,5.30
2023-03-18T14:24:38.959Z,4.60
2023-03-18T14:27:48.348Z,4.30
2023-03-18T14:31:14.807Z,4.63
2023-03-18T14:34:29.489Z,4.40
2023-03-18T14:37:34.312Z,4.72
2023-03-18T14:40:41.939Z,4.93
2023-03-18T14:43:54.255Z,4.63
2023-03-18T14:47:00.341Z,4.60
2023-03-18T14:50:14.139Z,4.78
2023-03-18T14:53:23.595Z,4.57
2023-03-18T14:56:31.076Z,4.90
2023-03-18T14:59:34.390Z,4.82
2023-03-18T15:02:40.030Z,4.65
2023-03-18T15:05:46.594Z,4.93
2023-03-18T15:08:52.323Z,5.80
2023-03-18T15:11:56.550Z,10.75
2023-03-18T15:15:00.145Z,7.88
2023-03-18T15:18:12.436Z,13.05
2023-03-18T15:21:22.447Z,5.85
2023-03-18T15:24:27.946Z,10.57
2023-03-18T15:27:34.641Z,9.38
2023-03-18T15:30:38.324Z,5.95
2023-03-18T15:33:41.804Z,8.95
2023-03-18T15:36:53.077Z,4.97
2023-03-18T15:39:59.868Z,6.18
2023-03-18T15:43:13.063Z,7.30
2023-03-18T15:46:19.230Z,5.32
2023-03-18T15:49:29.443Z,5.25
2023-03-18T15:52:36.502Z,5.20
2023-03-18T15:55:49.327Z,10.82
2023-03-18T15:59:00.703Z,7.45
2023-03-18T16:02:05.877Z,7.03
2023-03-18T16:05:14.734Z,7.75
2023-03-18T16:08:21.743Z,6.95
2023-03-18T16:11:26.704Z,7.80
2023-03-18T16:14:39.958Z,10.23
2023-03-18T16:17:45.718Z,9.32
2023-03-18T16:20:50.344Z,8.18
2023-03-18T16:23:55.034Z,9.18
2023-03-18T16:26:59.737Z,8.88
2023-03-18T16:30:06.379Z,8.93
2023-03-18T16:33:15.022Z,9.13
2023-03-18T16:36:28.088Z,11.30
2023-03-18T16:39:37.784Z,19.70
2023-03-18T16:42:42.521Z,78.30
2023-03-18T16:45:47.665Z,72.38
2023-03-18T16:48:50.989Z,96.47
2023-03-18T16:51:54.697Z,166.63
2023-03-18T16:55:00.812Z,202.48
2023-03-18T16:58:05.133Z,197.63
2023-03-18T17:01:09.649Z,198.50
2023-03-18T17:04:26.227Z,172.02
2023-03-18T17:07:36.324Z,149.85
2023-03-18T17:10:41.874Z,109.65
2023-03-18T17:13:45.550Z,73.63
2023-03-18T17:16:49.857Z,52.80
2023-03-18T17:19:53.874Z,51.30
2023-03-18T17:23:01.059Z,49.38
2023-03-18T17:26:10.411Z,45.17
2023-03-18T17:29:23.713Z,33.58
2023-03-18T17:32:28.536Z,29.55
2023-03-18T17:35:33.148Z,28.92
2023-03-18T17:38:36.857Z,42.22
2023-03-18T17:41:42.437Z,61.45
2023-03-18T17:44:48.729Z,103.10
2023-03-18T17:47:52.794Z,128.25
2023-03-18T17:50:58.648Z,179.35
2023-03-18T17:54:05.873Z,229.23
2023-03-18T17:57:15.911Z,243.38
2023-03-18T18:00:22.580Z,229.85
2023-03-18T18:03:28.545Z,227.30
2023-03-18T18:06:33.616Z,213.00
2023-03-18T18:09:39.523Z,170.25
2023-03-18T18:12:48.378Z,166.25
2023-03-18T18:15:52.739Z,218.23
2023-03-18T18:18:56.123Z,130.90
2023-03-18T18:22:05.935Z,106.10
2023-03-18T18:25:19.758Z,96.82
2023-03-18T18:28:27.053Z,68.57
2023-03-18T18:31:34.064Z,41.33
2023-03-18T18:34:37.431Z,32.75
2023-03-18T18:37:40.683Z,32.35
2023-03-18T18:40:43.899Z,32.83
2023-03-18T18:43:48.847Z,27.73
2023-03-18T18:46:52.252Z,27.10
2023-03-18T18:49:56.143Z,27.20
2023-03-18T18:53:00.442Z,45.33
2023-03-18T18:56:08.400Z,58.97
2023-03-18T18:59:26.004Z,81.25
2023-03-18T19:02:34.782Z,51.45
2023-03-18T19:05:38.089Z,48.53
2023-03-18T19:08:41.338Z,42.42
2023-03-18T19:11:44.562Z,33.30
2023-03-18T19:14:49.385Z,43.67
2023-03-18T19:17:54.604Z,39.17
2023-03-18T19:20:58.422Z,31.17
2023-03-18T19:24:02.227Z,73.57
2023-03-18T19:27:07.859Z,36.47
2023-03-18T19:30:21.991Z,32.75
2023-03-18T19:33:27.098Z,27.48
2023-03-18T19:36:32.865Z,40.05
2023-03-18T19:39:38.147Z,41.00
2023-03-18T19:42:41.559Z,33.55
2023-03-18T19:45:47.065Z,34.38
2023-03-18T19:48:50.704Z,23.55
2023-03-18T19:51:54.806Z,29.00
2023-03-18T19:54:58.706Z,34.30
2023-03-18T19:58:02.665Z,22.95
2023-03-18T20:01:07.701Z,26.35
2023-03-18T20:04:21.715Z,26.70
2023-03-18T20:07:27.107Z,35.50
2023-03-18T20:10:31.300Z,31.48
2023-03-18T20:13:34.885Z,25.95
2023-03-18T20:16:39.618Z,20.90
2023-03-18T20:19:43.626Z,20.38
2023-03-18T20:22:51.980Z,31.55
2023-03-18T20:25:58.589Z,29.00
2023-03-18T20:29:04.531Z,22.77
2023-03-18T20:32:09.448Z,25.80
2023-03-18T20:35:13.503Z,67.63
2023-03-18T20:38:24.379Z,259.50
2023-03-18T20:41:33.773Z,214.43
2023-03-18T20:44:37.142Z,585.08
2023-03-18T20:47:42.424Z,258.92
2023-03-18T20:50:46.758Z,235.30
2023-03-18T20:53:53.256Z,230.85
2023-03-18T20:56:59.131Z,301.58
2023-03-18T21:00:03.127Z,336.90
2023-03-18T21:03:18.696Z,600.65
2023-03-18T21:06:22.200Z,271.50
2023-03-18T21:09:27.053Z,288.63
2023-03-18T21:12:32.525Z,168.35
2023-03-18T21:15:38.706Z,262.17
2023-03-18T21:18:45.669Z,155.02
2023-03-18T21:21:53.101Z,160.48
2023-03-18T21:24:57.103Z,136.75
2023-03-18T21:28:00.634Z,154.38
2023-03-18T21:31:07.527Z,252.07
2023-03-18T21:34:13.027Z,106.10
2023-03-18T21:37:17.900Z,124.10
2023-03-18T21:40:23.843Z,71.85
2023-03-18T21:43:32.907Z,53.72
2023-03-18T21:46:37.661Z,125.63
2023-03-18T21:49:44.034Z,75.72
2023-03-18T21:52:47.705Z,65.00
2023-03-18T21:55:51.738Z,91.75
2023-03-18T21:58:55.759Z,61.80
2023-03-18T22:01:59.996Z,47.20
2023-03-18T22:05:13.648Z,49.35
2023-03-18T22:08:17.460Z,34.47
2023-03-18T22:11:23.005Z,41.00
2023-03-18T22:14:26.308Z,38.92
2023-03-18T22:17:34.096Z,28.67
2023-03-18T22:20:40.304Z,27.65
2023-03-18T22:23:44.445Z,21.00
2023-03-18T22:26:47.711Z,20.48
2023-03-18T22:29:52.388Z,20.58
2023-03-18T22:32:57.030Z,20.75
2023-03-18T22:36:02.212Z,20.70
2023-03-18T22:39:05.781Z,23.70
2023-03-18T22:42:11.365Z,31.65
2023-03-18T22:45:23.014Z,24.85
2023-03-18T22:48:26.616Z,22.58
2023-03-18T22:51:34.186Z,20.40
2023-03-18T22:54:37.373Z,21.73
2023-03-18T22:57:40.546Z,21.00
2023-03-18T23:00:44.784Z,20.48
2023-03-18T23:03:48.948Z,20.15
2023-03-18T23:06:53.705Z,19.95
2023-03-18T23:09:58.909Z,19.30
2023-03-18T23:13:02.178Z,18.77
2023-03-18T23:16:07.545Z,18.75
2023-03-18T23:19:10.871Z,19.42
2023-03-18T23:22:19.281Z,18.23
2023-03-18T23:25:22.610Z,18.88
2023-03-18T23:28:25.883Z,18.08
2023-03-18T23:31:29.112Z,18.45
2023-03-18T23:34:32.680Z,18.60
2023-03-18T23:37:37.285Z,18.17
2023-03-18T23:40:40.686Z,18.88
2023-03-18T23:43:43.871Z,17.77
2023-03-18T23:46:48.901Z,18.55
2023-03-18T23:49:52.117Z,18.90
2023-03-18T23:52:56.859Z,19.00
2023-03-18T23:56:00.236Z,19.08
2023-03-18T23:59:03.949Z,18.40
